createdAt,value
2023-05-22T00:03:37.172Z,9.00
2023-05-22T00:08:39.092Z,12.67
2023-05-22T00:13:40.929Z,10.33
2023-05-22T00:18:42.852Z,12.00
2023-05-22T00:23:45.686Z,3.67
2023-05-22T00:28:47.570Z,11.33
2023-05-22T00:33:49.868Z,11.00
2023-05-22T00:38:51.876Z,11.00
2023-05-22T00:43:53.698Z,11.00
2023-05-22T00:48:55.659Z,9.00
2023-05-22T00:53:57.941Z,9.00
2023-05-22T00:58:59.890Z,12.00
2023-05-22T01:04:02.258Z,11.67
2023-05-22T01:09:04.954Z,10.33
2023-05-22T01:14:18.392Z,11.00
2023-05-22T01:19:43.757Z,11.33
2023-05-22T01:24:48.734Z,10.33
2023-05-22T01:29:59.706Z,9.00
2023-05-22T01:35:03.387Z,8.33
2023-05-22T01:40:07.611Z,10.00
2023-05-22T01:45:11.543Z,8.33
2023-05-22T01:50:14.618Z,8.33
2023-05-22T01:55:27.459Z,8.67
2023-05-22T02:00:31.371Z,11.00
2023-05-22T02:05:37.652Z,9.67
2023-05-22T02:10:41.257Z,8.33
2023-05-22T02:15:46.596Z,10.33
2023-05-22T02:20:48.621Z,11.00
2023-05-22T02:25:50.796Z,10.33
2023-05-22T02:30:52.986Z,6.33
2023-05-22T02:35:54.810Z,6.67
2023-05-22T02:40:56.625Z,7.67
2023-05-22T02:45:58.405Z,6.00
2023-05-22T02:51:00.413Z,10.33
2023-05-22T02:56:03.049Z,7.67
2023-05-22T03:01:09.050Z,10.00
2023-05-22T03:06:11.060Z,8.00
2023-05-22T03:11:12.888Z,7.67
2023-05-22T03:16:15.659Z,10.00
2023-05-22T03:21:20.669Z,8.67
2023-05-22T03:26:22.712Z,7.00
2023-05-22T03:31:29.563Z,8.67
2023-05-22T03:36:38.700Z,9.33
2023-05-22T03:41:41.219Z,9.00
2023-05-22T03:46:43.530Z,9.00
2023-05-22T03:51:45.474Z,9.67
2023-05-22T03:56:47.324Z,6.67
2023-05-22T04:01:49.146Z,7.00
2023-05-22T04:06:53.457Z,8.00
2023-05-22T04:11:56.129Z,6.33
2023-05-22T04:16:58.080Z,7.00
2023-05-22T04:21:59.946Z,7.67
2023-05-22T04:27:02.357Z,7.00
2023-05-22T04:32:06.312Z,7.33
2023-05-22T04:37:10.196Z,7.00
2023-05-22T04:42:16.027Z,10.00
2023-05-22T04:47:18.660Z,9.00
2023-05-22T04:52:21.327Z,8.00
2023-05-22T04:57:25.560Z,7.67
2023-05-22T05:02:27.671Z,4.33
2023-05-22T05:07:29.772Z,8.33
2023-05-22T05:12:32.347Z,7.00
2023-05-22T05:17:34.303Z,8.67
2023-05-22T05:22:37.461Z,7.33
2023-05-22T05:27:40.846Z,8.00
2023-05-22T05:32:44.280Z,8.00
2023-05-22T05:37:58.237Z,8.00
2023-05-22T05:43:02.240Z,8.00
2023-05-22T05:48:04.973Z,6.67
2023-05-22T05:53:08.686Z,7.00
2023-05-22T05:58:10.963Z,7.67
2023-05-22T06:03:26.355Z,8.00
2023-05-22T06:08:36.990Z,5.00
2023-05-22T06:13:39.032Z,7.00
2023-05-22T06:18:41.000Z,9.00
2023-05-22T06:23:42.947Z,9.00
2023-05-22T06:28:45.955Z,9.00
2023-05-22T06:33:48.357Z,7.00
2023-05-22T06:38:50.366Z,6.00
2023-05-22T06:44:12.935Z,7.33
2023-05-22T06:49:15.716Z,6.00
2023-05-22T06:54:23.542Z,8.00
2023-05-22T06:59:31.115Z,6.33
2023-05-22T07:04:41.928Z,8.00
2023-05-22T07:09:48.301Z,8.33
2023-05-22T07:14:50.921Z,8.33
2023-05-22T07:19:52.976Z,9.00
2023-05-22T07:24:54.982Z,3.33
2023-05-22T07:29:58.562Z,9.00
2023-05-22T07:35:00.734Z,7.00
2023-05-22T07:40:05.687Z,10.00
2023-05-22T07:45:08.585Z,9.00
2023-05-22T07:50:10.619Z,9.00
2023-05-22T07:55:16.210Z,7.00
2023-05-22T08:00:19.368Z,10.67
2023-05-22T08:05:21.433Z,11.33
2023-05-22T08:10:23.364Z,14.00
2023-05-22T08:15:25.141Z,11.00
2023-05-22T08:20:27.267Z,11.00
2023-05-22T08:25:29.185Z,11.33
2023-05-22T08:30:31.152Z,10.00
2023-05-22T08:35:33.038Z,9.33
2023-05-22T08:40:41.937Z,12.00
2023-05-22T08:45:45.848Z,9.00
2023-05-22T08:50:57.572Z,10.00
2023-05-22T08:55:59.872Z,12.33
2023-05-22T09:01:02.898Z,12.00
2023-05-22T09:06:10.434Z,11.33
2023-05-22T09:11:13.273Z,10.00
2023-05-22T09:16:15.796Z,12.33
2023-05-22T09:21:29.410Z,11.00
2023-05-22T09:26:32.990Z,13.67
2023-05-22T09:31:42.776Z,13.33
2023-05-22T09:36:45.382Z,7.67
2023-05-22T09:41:47.304Z,14.67
2023-05-22T09:46:49.225Z,14.67
2023-05-22T09:51:53.992Z,13.00
2023-05-22T09:56:59.468Z,14.00
2023-05-22T10:02:04.216Z,12.33
2023-05-22T10:07:06.654Z,12.33
2023-05-22T10:12:10.824Z,14.33
2023-05-22T10:17:13.115Z,16.00
2023-05-22T10:22:20.819Z,16.33
2023-05-22T10:27:22.598Z,16.00
2023-05-22T10:32:50.359Z,12.67
2023-05-22T10:38:07.488Z,17.67
2023-05-22T10:43:09.518Z,12.67
2023-05-22T10:48:12.522Z,14.67
2023-05-22T10:53:25.872Z,14.00
2023-05-22T10:58:30.420Z,12.67
2023-05-22T11:03:57.285Z,11.33
2023-05-22T11:08:59.334Z,12.67
2023-05-22T11:14:04.523Z,13.33
2023-05-22T11:19:22.048Z,13.67
2023-05-22T11:24:24.895Z,16.00
2023-05-22T11:29:27.177Z,13.67
2023-05-22T11:34:29.421Z,15.33
2023-05-22T11:39:32.693Z,11.00
2023-05-22T11:44:34.507Z,13.67
2023-05-22T11:49:36.396Z,11.67
2023-05-22T11:54:39.055Z,9.33
2023-05-22T11:59:46.309Z,8.67
2023-05-22T12:04:48.116Z,7.67
2023-05-22T12:09:50.294Z,7.67
2023-05-22T12:14:52.095Z,7.00
2023-05-22T12:19:53.838Z,7.00
2023-05-22T12:24:55.693Z,8.00
2023-05-22T12:29:58.117Z,8.00
2023-05-22T12:35:00.023Z,6.33
2023-05-22T12:40:04.814Z,6.00
2023-05-22T12:45:07.174Z,7.00
2023-05-22T12:50:09.248Z,8.33
2023-05-22T12:55:11.650Z,6.00
2023-05-22T13:00:14.059Z,4.00
2023-05-22T13:05:15.863Z,6.00
2023-05-22T13:10:18.969Z,11.00
2023-05-22T13:15:20.763Z,7.33
2023-05-22T13:20:23.683Z,7.00
2023-05-22T13:25:25.578Z,8.33
2023-05-22T13:30:28.407Z,8.33
2023-05-22T13:35:30.322Z,4.00
2023-05-22T13:40:32.228Z,7.67
2023-05-22T13:45:34.019Z,11.00
2023-05-22T13:50:35.780Z,8.00
2023-05-22T13:55:37.914Z,7.67
2023-05-22T14:00:39.866Z,9.00
2023-05-22T14:05:41.812Z,3.33
2023-05-22T14:10:43.838Z,7.33
2023-05-22T14:15:49.113Z,8.00
2023-05-22T14:20:50.972Z,6.67
2023-05-22T14:25:53.112Z,7.67
2023-05-22T14:30:56.294Z,3.33
2023-05-22T14:35:58.159Z,7.00
2023-05-22T14:41:01.052Z,9.00
2023-05-22T14:46:03.228Z,7.33
2023-05-22T14:51:05.063Z,6.33
2023-05-22T14:56:06.898Z,2.67
2023-05-22T15:01:08.787Z,6.00
2023-05-22T15:06:10.663Z,5.33
2023-05-22T15:11:12.477Z,6.00
2023-05-22T15:16:14.331Z,6.33
2023-05-22T15:21:16.821Z,7.00
2023-05-22T15:26:19.048Z,7.33
2023-05-22T15:31:20.972Z,8.00
2023-05-22T15:36:23.638Z,9.00
2023-05-22T15:41:26.058Z,2.00
2023-05-22T15:46:27.910Z,10.00
2023-05-22T15:51:30.082Z,8.33
2023-05-22T15:56:31.909Z,6.33
2023-05-22T16:01:34.798Z,9.00
2023-05-22T16:06:36.717Z,7.00
2023-05-22T16:11:38.704Z,5.33
2023-05-22T16:16:40.974Z,6.33
2023-05-22T16:21:42.997Z,6.00
2023-05-22T16:26:44.946Z,5.00
2023-05-22T16:31:47.298Z,6.00
2023-05-22T16:36:49.274Z,9.00
2023-05-22T16:41:53.579Z,7.33
2023-05-22T16:46:55.837Z,6.00
2023-05-22T16:51:57.755Z,6.67
2023-05-22T16:56:59.713Z,6.33
2023-05-22T17:02:01.587Z,7.67
2023-05-22T17:07:03.696Z,8.00
2023-05-22T17:12:06.094Z,8.00
2023-05-22T17:17:08.016Z,6.33
2023-05-22T17:22:09.856Z,8.33
2023-05-22T17:27:12.790Z,7.00
2023-05-22T17:32:19.899Z,8.00
2023-05-22T17:37:21.867Z,6.00
2023-05-22T17:42:23.891Z,7.33
2023-05-22T17:47:25.809Z,6.33
2023-05-22T17:52:27.647Z,7.00
2023-05-22T17:57:29.565Z,8.00
2023-05-22T18:02:31.504Z,7.00
2023-05-22T18:07:33.311Z,9.00
2023-05-22T18:12:37.994Z,7.33
2023-05-22T18:17:41.334Z,8.33
2023-05-22T18:22:43.365Z,8.00
2023-05-22T18:27:45.251Z,7.00
2023-05-22T18:32:47.175Z,7.33
2023-05-22T18:37:49.068Z,7.67
2023-05-22T18:42:51.042Z,9.00
2023-05-22T18:47:53.270Z,8.67
2023-05-22T18:52:55.713Z,9.67
2023-05-22T18:57:57.580Z,9.00
2023-05-22T19:02:59.509Z,8.67
2023-05-22T19:08:01.476Z,8.67
2023-05-22T19:13:03.915Z,7.67
2023-05-22T19:18:05.939Z,9.33
2023-05-22T19:23:09.630Z,7.33
2023-05-22T19:28:11.544Z,7.67
2023-05-22T19:33:14.530Z,7.67
2023-05-22T19:38:16.587Z,9.67
2023-05-22T19:43:18.538Z,10.00
2023-05-22T19:48:20.487Z,8.33
2023-05-22T19:53:22.399Z,7.00
2023-05-22T19:58:24.273Z,8.00
2023-05-22T20:03:26.524Z,9.00
2023-05-22T20:08:28.561Z,9.67
2023-05-22T20:13:30.400Z,9.33
2023-05-22T20:18:32.212Z,8.00
2023-05-22T20:23:34.043Z,10.00
2023-05-22T20:28:35.924Z,10.33
2023-05-22T20:33:37.769Z,11.00
2023-05-22T20:38:42.537Z,9.33
2023-05-22T20:43:44.467Z,10.67
2023-05-22T20:48:48.206Z,8.00
2023-05-22T20:53:52.534Z,9.00
2023-05-22T20:58:54.877Z,9.67
2023-05-22T21:03:56.818Z,8.67
2023-05-22T21:09:01.543Z,9.00
2023-05-22T21:14:03.561Z,10.67
2023-05-22T21:19:06.195Z,9.67
2023-05-22T21:24:09.806Z,8.00
2023-05-22T21:29:11.649Z,9.00
2023-05-22T21:34:13.500Z,9.67
2023-05-22T21:39:15.467Z,11.33
2023-05-22T21:44:18.426Z,11.00
2023-05-22T21:49:20.274Z,8.67
2023-05-22T21:54:22.070Z,10.00
2023-05-22T21:59:23.965Z,11.00
2023-05-22T22:04:25.814Z,10.33
2023-05-22T22:09:27.635Z,11.00
2023-05-22T22:14:29.531Z,10.67
2023-05-22T22:19:31.502Z,9.33
2023-05-22T22:24:33.516Z,11.00
2023-05-22T22:29:35.543Z,10.00
2023-05-22T22:34:37.658Z,11.00
2023-05-22T22:39:39.598Z,10.00
2023-05-22T22:44:41.730Z,9.33
2023-05-22T22:49:43.549Z,9.67
2023-05-22T22:54:45.439Z,10.33
2023-05-22T22:59:47.429Z,7.00
2023-05-22T23:04:49.342Z,8.00
2023-05-22T23:09:51.168Z,8.67
2023-05-22T23:14:53.567Z,10.67
2023-05-22T23:19:55.607Z,10.00
2023-05-22T23:24:57.401Z,11.00
2023-05-22T23:29:59.198Z,8.00
2023-05-22T23:35:01.004Z,9.00
2023-05-22T23:40:02.870Z,11.33
2023-05-22T23:45:05.202Z,10.00
2023-05-22T23:50:07.994Z,1.00
2023-05-22T23:55:09.975Z,10.00
